Terminal Aerodrome Forecast
Issued by NWS

Home | Current Version | Previous Version | Text Only | Print | Product List | Glossary On
Versions: 1 2 3 4 5 6 7 8 9 10 11 12 13 14 15 16
812
FTPA31 PHFO 290606 AAA
TAFHNY
TAF AMD
PHNY 290606Z 2906/3006 33005KT P6SM VCSH SCT012 BKN040
     FM292000 VRB05KT P6SM VCSH BKN008 OVC025=

USA.gov is the U.S. government's official web portal to all federal, state and local government web resources and services.